Flight Track Log - Related Links

Times and Time Zones

All times are in EDT time to prevent confusion due to time zone crossing. See the CDG4879 flight status page for this flight to view local times or setup timezone preferences in your user account.

Time Position Orientation Groundspeed Altitude Reporting Facility
EDT Latitude Longitude Course Direction KTS MPH feet Rate Location/Type
Mon 11:45:00 PM 27.9687 117.6739 313° West  Level Estimated
Mon 11:46:00 PM 28.0220 117.6082 313° West  Level Estimated
Mon 11:47:00 PM 28.0752 117.5424 313° West  Level Estimated
Mon 11:48:00 PM 28.1284 117.4766 313° West  Level Estimated
Mon 11:49:00 PM 28.1816 117.4107 312° West  Level Estimated
Mon 11:50:00 PM 28.2347 117.3448 312° West  Level Estimated
Mon 11:51:00 PM 28.2878 117.2788 312° West  Level Estimated
Mon 11:52:00 PM 28.3409 117.2127 312° West  Level Estimated
Mon 11:53:00 PM 28.3940 117.1465 312° West  Level Estimated
Mon 11:54:00 PM 28.4470 117.0803 312° West  Level Estimated
Mon 11:55:00 PM 28.5000 117.0140 312° West  Level Estimated
Mon 11:56:00 PM 28.5529 116.9477 312° West  Level Estimated
Mon 11:57:00 PM 28.6058 116.8813 312° West  Level Estimated
Mon 11:58:00 PM 28.6587 116.8148 312° West  Level Estimated
Mon 11:59:00 PM 28.7115 116.7482 312° West  Level Estimated
Tue 12:00:00 AM 28.7644 116.6816 312° West  Level Estimated
Tue 12:01:00 AM 28.8171 116.6149 312° West  Level Estimated
Tue 12:02:00 AM 28.8699 116.5482 312° West  Level Estimated
Tue 12:03:00 AM 28.9226 116.4814 312° West  Level Estimated
Tue 12:04:00 AM 28.9753 116.4145 312° West  Level Estimated
Tue 12:05:00 AM 29.0280 116.3475 312° West  Level Estimated
Tue 12:06:00 AM 29.0806 116.2805 312° West  Level Estimated
Tue 12:07:00 AM 29.1332 116.2134 312° West  Level Estimated
Tue 12:08:00 AM 29.1857 116.1462 312° West  Level Estimated
Tue 12:09:00 AM 29.2382 116.0790 312° West  Level Estimated
Tue 12:10:00 AM 29.2907 116.0117 312° West  Level Estimated
Tue 12:11:00 AM 29.3432 115.9443 312° West  Level Estimated
Tue 12:12:00 AM 29.3956 115.8769 312° West  Level Estimated
Tue 12:13:00 AM 29.4480 115.8094 312° West  Level Estimated
Tue 12:14:00 AM 29.5003 115.7418 312° West  Level Estimated
Tue 12:15:00 AM 29.5526 115.6741 312° West  Level Estimated
Tue 12:16:00 AM 29.6049 115.6064 312° West  Level Estimated
Tue 12:17:00 AM 29.6572 115.5387 312° West  Level Estimated
Tue 12:18:00 AM 29.7094 115.4708 312° West  Level Estimated
Tue 12:19:00 AM 29.7616 115.4029 312° West  Level Estimated
Tue 12:20:00 AM 29.8137 115.3349 311° West  Level Estimated
Tue 12:21:00 AM 29.8658 115.2668 311° West  Level Estimated
Tue 12:22:00 AM 29.9179 115.1986 311° West  Level Estimated
Tue 12:23:00 AM 29.9699 115.1304 311° West  Level Estimated
Tue 12:24:00 AM 30.0219 115.0621 311° West  Level Estimated
Tue 12:25:00 AM 30.0739 114.9938 311° West  Level Estimated
Tue 12:26:00 AM 30.1258 114.9254 311° West  Level Estimated
Tue 12:27:00 AM 30.1777 114.8569 311° West  Level Estimated
Tue 12:28:00 AM 30.2296 114.7883 311° West  Level Estimated
Tue 12:29:00 AM 30.2814 114.7197 311° West  Level Estimated
Tue 12:30:00 AM 30.3332 114.6509 311° West  Level Estimated
Tue 12:31:00 AM 30.3849 114.5821 311° West  Level Estimated
Tue 12:32:00 AM 30.4366 114.5133 311° West  Level Estimated
Tue 12:33:00 AM 30.4883 114.4443 311° West  Level Estimated
Tue 12:34:00 AM 30.5400 114.3753 311° West  Level Estimated
Tue 12:35:00 AM 30.5916 114.3063 311° West  Level Estimated
Tue 12:36:00 AM 30.6432 114.2371 311° West  Level Estimated
Tue 12:37:00 AM 30.6947 114.1679 311° West  Level Estimated
Tue 12:38:00 AM 30.7462 114.0986 311° West  Level Estimated
Tue 12:39:00 AM 30.7976 114.0292 311° West  Level Estimated
Tue 12:40:00 AM 30.8491 113.9597 311° West  Level Estimated
Tue 12:41:00 AM 30.9005 113.8902 311° West  Level Estimated
Tue 12:42:00 AM 30.9518 113.8206 311° West  Level Estimated
Tue 12:43:00 AM 31.0031 113.7509 311° West  Level Estimated
Tue 12:44:00 AM 31.0544 113.6812 311° West  Level Estimated
Tue 12:45:00 AM 31.1056 113.6114 311° West  Level Estimated
Tue 12:46:00 AM 31.1568 113.5415 311° West  Level Estimated
Tue 12:47:00 AM 31.2080 113.4715 311° West  Level Estimated
Tue 12:48:00 AM 31.2591 113.4014 310° West  Level Estimated
Tue 12:49:00 AM 31.3102 113.3313 310° West  Level Estimated
Tue 12:50:00 AM 31.3613 113.2611 310° West  Level Estimated
Tue 12:51:00 AM 31.4123 113.1908 310° West  Level Estimated
Tue 12:52:00 AM 31.4632 113.1205 310° West  Level Estimated
Tue 12:53:00 AM 31.5142 113.0500 310° West  Level Estimated
Tue 12:54:00 AM 31.5651 112.9795 310° West  Level Estimated
Tue 12:55:00 AM 31.6159 112.9089 310° West  Level Estimated
Tue 12:56:00 AM 31.6667 112.8382 310° West  Level Estimated
Tue 12:57:00 AM 31.7175 112.7675 310° West  Level Estimated
Tue 12:58:00 AM 31.7683 112.6967 310° West  Level Estimated
Tue 12:59:00 AM 31.8190 112.6258 310° West  Level Estimated
Tue 01:00:00 AM 31.8696 112.5548 310° West  Level Estimated
Tue 01:01:00 AM 31.9202 112.4838 310° West  Level Estimated
Tue 01:02:00 AM 31.9708 112.4126 310° West  Level Estimated
Tue 01:03:00 AM 32.0214 112.3414 310° West  Level Estimated
Tue 01:04:00 AM 32.0719 112.2701 310° West  Level Estimated
Tue 01:05:00 AM 32.1223 112.1988 310° West  Level Estimated
Tue 01:06:00 AM 32.1727 112.1273 310° West  Level Estimated
Tue 01:07:00 AM 32.2231 112.0558 310° West  Level Estimated
Tue 01:08:00 AM 32.2735 111.9842 310° West  Level Estimated
Tue 01:09:00 AM 32.3238 111.9125 310° West  Level Estimated
Tue 01:10:00 AM 32.3740 111.8407 310° West  Level Estimated
Tue 01:11:00 AM 32.4243 111.7689 310° West  Level Estimated
Tue 01:12:00 AM 32.4744 111.6970 310° West  Level Estimated
Tue 01:13:00 AM 32.5246 111.6250 310° West  Level Estimated
Tue 01:14:00 AM 32.5747 111.5529 310° West  Level Estimated
Tue 01:15:00 AM 32.6247 111.4807 309° West  Level Estimated
Tue 01:16:00 AM 32.6747 111.4085 309° West  Level Estimated
Tue 01:17:00 AM 32.7247 111.3361 309° West  Level Estimated
Tue 01:18:00 AM 32.7746 111.2637 309° West  Level Estimated
Tue 01:19:00 AM 32.8245 111.1913 309° West  Level Estimated
Tue 01:20:00 AM 32.8744 111.1187 309° West  Level Estimated
Tue 01:21:00 AM 32.9242 111.0460 309° West  Level Estimated
Tue 01:22:00 AM 32.9739 110.9733 309° West  Level Estimated
Tue 01:23:00 AM 33.0237 110.9005 309° West  Level Estimated
Tue 01:24:00 AM 33.0733 110.8276 309° West  Level Estimated
Tue 01:25:00 AM 33.1230 110.7546 309° West  Level Estimated
Tue 01:26:00 AM 33.1726 110.6815 309° West  Level Estimated
Tue 01:27:00 AM 33.2221 110.6084 309° West  Level Estimated
Tue 01:28:00 AM 33.2716 110.5352 309° West  Level Estimated
Tue 01:29:00 AM 33.3211 110.4619 309° West  Level Estimated
Tue 01:30:00 AM 33.3705 110.3885 309° West  Level Estimated
Tue 01:31:00 AM 33.4199 110.3150 309° West  Level Estimated
Tue 01:32:00 AM 33.4692 110.2414 309° West  Level Estimated
Tue 01:33:00 AM 33.5185 110.1678 309° West  Level Estimated
Tue 01:34:00 AM 33.5678 110.0940 309° West  Level Estimated
Tue 01:35:00 AM 33.6170 110.0202 309° West  Level Estimated
Tue 01:36:00 AM 33.6661 109.9463 309° West  Level Estimated
Tue 01:37:00 AM 33.7152 109.8724 309° West  Level Estimated
Tue 01:38:00 AM 33.7643 109.7983 309° West  Level Estimated
Tue 01:39:00 AM 33.8134 109.7241 309° West  Level Estimated
Tue 01:40:00 AM 33.8623 109.6499 308° West  Level Estimated
Tue 01:41:00 AM 33.9113 109.5756 308° West  Level Estimated
Tue 01:42:00 AM 33.9602 109.5012 308° West  Level Estimated
Tue 01:43:00 AM 34.0090 109.4267 308° West  Level Estimated
Tue 01:44:00 AM 34.0578 109.3521 308° West  Level Estimated
Tue 01:45:00 AM 34.1066 109.2774 308° West  Level Estimated
Tue 01:46:00 AM 34.1553 109.2027 308° West  Level Estimated
Tue 01:47:00 AM 34.2040 109.1278 308° West  Level Estimated
Tue 01:48:00 AM 34.2526 109.0529 308° West  Level Estimated
Tue 01:49:00 AM 34.3012 108.9779 308° West  Level Estimated
Tue 01:50:00 AM 34.3497 108.9028 308° West  Level Estimated
Tue 01:51:00 AM 34.3982 108.8276 308° West  Level Estimated
Tue 01:52:00 AM 34.4466 108.7524 308° West  Level Estimated

Login

Don't have an account? Register now (free) for customized features, flight alerts, and more!